createdAt,value
2017-12-13T00:00:29.734Z,4.70
2017-12-13T00:02:58.752Z,4.40
2017-12-13T00:05:27.430Z,4.40
2017-12-13T00:07:55.754Z,4.50
2017-12-13T00:10:24.084Z,4.40
2017-12-13T00:12:52.361Z,5.10
2017-12-13T00:15:20.739Z,4.70
2017-12-13T00:17:49.008Z,4.40
2017-12-13T00:20:17.244Z,4.50
2017-12-13T00:22:45.584Z,4.40
2017-12-13T00:25:13.856Z,4.40
2017-12-13T00:27:42.146Z,4.30
2017-12-13T00:30:10.468Z,4.30
2017-12-13T00:32:38.740Z,4.30
2017-12-13T00:35:07.015Z,4.30
2017-12-13T00:37:36.112Z,4.40
2017-12-13T00:40:05.182Z,4.70
2017-12-13T00:42:33.482Z,4.70
2017-12-13T00:45:01.877Z,4.60
2017-12-13T00:47:30.106Z,4.60
2017-12-13T00:49:58.430Z,4.40
2017-12-13T00:52:26.757Z,4.30
2017-12-13T00:54:55.022Z,4.30
2017-12-13T00:57:23.262Z,4.30
2017-12-13T00:59:51.630Z,4.20
2017-12-13T01:02:19.943Z,4.10
2017-12-13T01:04:48.167Z,3.90
2017-12-13T01:07:16.579Z,3.90
2017-12-13T01:09:44.912Z,3.90
2017-12-13T01:12:13.141Z,3.80
2017-12-13T01:14:41.435Z,3.80
2017-12-13T01:17:09.748Z,3.70
2017-12-13T01:19:38.796Z,3.80
2017-12-13T01:22:07.148Z,3.70
2017-12-13T01:24:35.451Z,3.90
2017-12-13T01:27:03.696Z,3.80
2017-12-13T01:29:32.000Z,3.70
2017-12-13T01:32:00.247Z,3.70
2017-12-13T01:34:28.515Z,3.80
2017-12-13T01:36:56.803Z,3.80
2017-12-13T01:39:25.057Z,4.00
2017-12-13T01:41:53.350Z,4.00
2017-12-13T01:44:22.396Z,3.80
2017-12-13T01:46:50.644Z,3.80
2017-12-13T01:49:18.896Z,3.60
2017-12-13T01:51:47.202Z,3.90
2017-12-13T01:54:15.502Z,3.90
2017-12-13T01:56:43.742Z,3.90
2017-12-13T01:59:12.086Z,4.00
2017-12-13T02:01:41.084Z,3.90
2017-12-13T02:04:10.142Z,4.10
2017-12-13T02:06:38.496Z,4.10
2017-12-13T02:09:06.833Z,4.00
2017-12-13T02:11:35.070Z,4.40
2017-12-13T02:14:03.452Z,4.50
2017-12-13T02:16:31.691Z,4.40
2017-12-13T02:18:59.971Z,4.50
2017-12-13T02:21:28.235Z,4.80
2017-12-13T02:23:56.486Z,4.50
2017-12-13T02:26:24.777Z,4.40
2017-12-13T02:28:53.033Z,4.70
2017-12-13T02:31:22.062Z,4.70
2017-12-13T02:33:50.312Z,4.70
2017-12-13T02:36:19.339Z,5.20
2017-12-13T02:38:47.625Z,5.20
2017-12-13T02:41:15.932Z,5.40
2017-12-13T02:43:44.251Z,5.10
2017-12-13T02:46:12.494Z,5.20
2017-12-13T02:48:41.540Z,5.10
2017-12-13T02:51:11.613Z,5.10
2017-12-13T02:53:39.852Z,4.90
2017-12-13T02:56:08.091Z,5.20
2017-12-13T02:58:36.379Z,5.20
2017-12-13T03:01:04.626Z,5.40
2017-12-13T03:03:32.870Z,5.30
2017-12-13T03:06:01.170Z,5.60
2017-12-13T03:08:29.450Z,5.80
2017-12-13T03:10:57.735Z,5.50
2017-12-13T03:13:26.050Z,5.40
2017-12-13T03:15:54.350Z,4.90
2017-12-13T03:18:22.635Z,4.60
2017-12-13T03:20:51.764Z,4.70
2017-12-13T03:23:20.130Z,4.70
2017-12-13T03:25:49.133Z,5.00
2017-12-13T03:28:17.413Z,5.00
2017-12-13T03:30:45.721Z,5.20
2017-12-13T03:33:13.995Z,5.50
2017-12-13T03:35:42.261Z,5.40
2017-12-13T03:38:10.522Z,5.40
2017-12-13T03:40:38.753Z,5.70
2017-12-13T03:43:07.053Z,5.70
2017-12-13T03:45:36.201Z,5.60
2017-12-13T03:48:04.463Z,5.50
2017-12-13T03:50:32.755Z,5.60
2017-12-13T03:53:00.997Z,5.20
2017-12-13T03:55:29.275Z,5.20
2017-12-13T03:57:58.312Z,5.20
2017-12-13T04:00:26.537Z,5.20
2017-12-13T04:02:54.831Z,5.20
2017-12-13T04:05:23.170Z,5.00
2017-12-13T04:07:52.191Z,5.70
2017-12-13T04:10:20.462Z,5.70
2017-12-13T04:12:48.853Z,5.50
2017-12-13T04:15:17.123Z,5.20
2017-12-13T04:17:45.383Z,3.70
2017-12-13T04:20:13.668Z,5.20
2017-12-13T04:22:41.896Z,5.10
2017-12-13T04:25:10.146Z,4.60
2017-12-13T04:27:38.466Z,4.20
2017-12-13T04:30:06.733Z,4.00
2017-12-13T04:32:35.038Z,4.20
2017-12-13T04:35:03.400Z,4.40
2017-12-13T04:37:32.411Z,4.40
2017-12-13T04:40:00.673Z,4.40
2017-12-13T04:42:28.950Z,4.30
2017-12-13T04:44:57.267Z,4.10
2017-12-13T04:47:25.612Z,4.30
2017-12-13T04:49:53.895Z,4.30
2017-12-13T04:52:22.168Z,4.50
2017-12-13T04:54:50.456Z,4.50
2017-12-13T04:57:18.780Z,4.90
2017-12-13T04:59:47.079Z,5.00
2017-12-13T05:02:16.106Z,5.00
2017-12-13T05:04:44.451Z,5.00
2017-12-13T05:07:12.756Z,4.70
2017-12-13T05:09:40.994Z,4.20
2017-12-13T05:12:09.283Z,4.00
2017-12-13T05:14:37.553Z,4.10
2017-12-13T05:17:06.605Z,4.70
2017-12-13T05:19:34.903Z,4.80
2017-12-13T05:22:03.154Z,4.50
2017-12-13T05:24:31.381Z,4.40
2017-12-13T05:26:59.649Z,4.50
2017-12-13T05:29:27.873Z,4.00
2017-12-13T05:31:56.164Z,4.20
2017-12-13T05:34:24.430Z,4.00
2017-12-13T05:36:52.688Z,3.80
2017-12-13T05:39:21.006Z,3.80
2017-12-13T05:41:49.313Z,3.70
2017-12-13T05:44:17.561Z,3.70
2017-12-13T05:46:45.804Z,3.60
2017-12-13T05:52:34.570Z,4.20
2017-12-13T05:55:02.897Z,4.10
2017-12-13T05:57:31.913Z,4.10
2017-12-13T06:00:00.179Z,4.10
2017-12-13T06:02:28.476Z,3.80
2017-12-13T06:04:56.761Z,3.80
2017-12-13T06:07:25.024Z,4.00
2017-12-13T06:09:53.290Z,4.10
2017-12-13T06:12:21.706Z,4.50
2017-12-13T06:14:49.958Z,4.50
2017-12-13T06:17:19.281Z,4.50
2017-12-13T06:19:47.538Z,4.70
2017-12-13T06:22:15.881Z,5.00
2017-12-13T06:24:45.056Z,5.20
2017-12-13T06:27:14.096Z,4.90
2017-12-13T06:29:42.423Z,4.90
2017-12-13T06:32:10.731Z,4.20
2017-12-13T06:34:39.047Z,4.70
2017-12-13T06:37:07.416Z,5.30
2017-12-13T06:39:35.706Z,4.90
2017-12-13T06:42:04.006Z,4.80
2017-12-13T06:44:32.265Z,5.30
2017-12-13T06:47:01.382Z,5.70
2017-12-13T06:49:29.701Z,5.70
2017-12-13T06:51:57.947Z,5.80
2017-12-13T06:54:27.023Z,5.80
2017-12-13T06:56:55.273Z,5.80
2017-12-13T06:59:23.550Z,5.90
2017-12-13T07:01:51.829Z,5.90
2017-12-13T07:04:20.055Z,5.90
2017-12-13T07:06:49.230Z,6.00
2017-12-13T07:09:17.503Z,6.00
2017-12-13T07:11:45.739Z,6.00
2017-12-13T07:14:13.992Z,6.10
2017-12-13T07:16:42.604Z,6.20
2017-12-13T07:19:10.871Z,6.30
2017-12-13T07:21:39.182Z,6.30
2017-12-13T07:24:07.503Z,6.30
2017-12-13T07:26:35.786Z,6.30
2017-12-13T07:29:04.021Z,6.30
2017-12-13T07:31:33.087Z,6.40
2017-12-13T07:34:01.368Z,6.30
2017-12-13T07:36:29.687Z,6.40
2017-12-13T07:38:58.238Z,6.40
2017-12-13T07:41:26.511Z,6.40
2017-12-13T07:43:54.833Z,6.50
2017-12-13T07:46:23.158Z,6.50
2017-12-13T07:48:51.585Z,6.60
2017-12-13T07:51:20.621Z,6.60
2017-12-13T07:53:49.714Z,6.60
2017-12-13T07:56:18.117Z,6.60
2017-12-13T07:58:47.179Z,6.30
2017-12-13T08:01:15.496Z,6.30
2017-12-13T08:03:43.763Z,6.20
2017-12-13T08:06:12.631Z,6.30
2017-12-13T08:08:40.941Z,6.30
2017-12-13T08:11:09.948Z,6.20
2017-12-13T08:13:38.249Z,6.20
2017-12-13T08:16:19.742Z,6.20
2017-12-13T08:18:49.326Z,6.10
2017-12-13T08:21:19.544Z,6.10
2017-12-13T08:37:22.134Z,5.80
2017-12-13T08:43:32.438Z,4.70
2017-12-13T08:46:10.650Z,8.90
2017-12-13T08:48:48.526Z,5.60
2017-12-13T08:51:18.158Z,5.50
2017-12-13T08:53:46.410Z,5.50
2017-12-13T08:56:14.893Z,4.70
2017-12-13T08:58:43.441Z,5.10
2017-12-13T09:01:12.486Z,5.20
2017-12-13T09:03:40.938Z,5.20
2017-12-13T09:06:09.165Z,5.80
2017-12-13T09:08:37.467Z,5.80
2017-12-13T09:11:07.217Z,5.20
2017-12-13T09:13:35.499Z,5.10
2017-12-13T09:16:03.912Z,5.60
2017-12-13T09:18:32.241Z,5.80
2017-12-13T09:21:10.952Z,5.90
2017-12-13T09:23:39.315Z,5.80
2017-12-13T09:26:07.618Z,5.50
2017-12-13T09:28:35.906Z,5.50
2017-12-13T09:31:04.252Z,5.80
2017-12-13T09:33:32.701Z,5.90
2017-12-13T09:36:01.709Z,5.80
2017-12-13T09:38:30.775Z,5.60
2017-12-13T09:40:59.389Z,5.70
2017-12-13T09:43:28.418Z,5.80
2017-12-13T09:45:57.344Z,5.80
2017-12-13T09:48:25.835Z,5.60
2017-12-13T09:50:54.271Z,5.90
2017-12-13T10:07:53.350Z,5.90
2017-12-13T10:10:21.611Z,5.40
2017-12-13T10:12:51.998Z,5.40
2017-12-13T10:15:20.554Z,5.60
2017-12-13T10:17:48.795Z,5.90
2017-12-13T10:20:17.060Z,5.80
2017-12-13T10:22:48.361Z,6.10
2017-12-13T10:25:16.653Z,6.10
2017-12-13T10:27:44.931Z,6.20
2017-12-13T10:30:13.282Z,6.00
2017-12-13T10:32:43.956Z,5.80
2017-12-13T10:35:13.024Z,5.70
2017-12-13T10:37:41.296Z,5.70
2017-12-13T10:40:09.560Z,6.00
2017-12-13T10:42:38.013Z,6.20
2017-12-13T10:45:06.478Z,6.00
2017-12-13T10:47:34.715Z,6.00
2017-12-13T10:53:08.882Z,6.20
2017-12-13T10:55:37.323Z,6.30
2017-12-13T10:58:05.603Z,6.20
2017-12-13T11:00:35.019Z,6.40
2017-12-13T11:03:05.782Z,6.50
2017-12-13T11:22:42.422Z,7.20
2017-12-13T11:25:15.623Z,7.60
2017-12-13T11:27:48.510Z,8.30
2017-12-13T11:30:16.833Z,7.20
2017-12-13T11:32:49.693Z,6.70
2017-12-13T11:35:18.691Z,6.90
2017-12-13T12:02:26.514Z,6.50
2017-12-13T12:04:55.692Z,6.00
2017-12-13T12:07:24.014Z,6.00
2017-12-13T12:09:53.082Z,6.60
2017-12-13T12:12:21.397Z,6.60
2017-12-13T12:14:49.722Z,6.60
2017-12-13T12:17:17.996Z,6.70
2017-12-13T12:19:46.248Z,6.90
2017-12-13T12:22:14.501Z,6.90
2017-12-13T12:24:42.863Z,7.00
2017-12-13T12:27:11.908Z,6.90
2017-12-13T12:29:40.149Z,6.80
2017-12-13T12:32:08.472Z,6.90
2017-12-13T12:34:36.853Z,7.20
2017-12-13T12:37:05.086Z,7.00
2017-12-13T12:39:33.491Z,6.90
2017-12-13T12:42:01.725Z,6.90
2017-12-13T12:44:30.073Z,7.00
2017-12-13T12:46:58.336Z,6.80
2017-12-13T12:49:26.703Z,6.90
2017-12-13T12:51:54.957Z,6.70
2017-12-13T12:54:23.269Z,6.60
2017-12-13T12:56:51.532Z,6.80
2017-12-13T12:59:19.794Z,6.90
2017-12-13T13:01:48.064Z,6.90
2017-12-13T13:04:16.340Z,6.80
2017-12-13T13:06:44.662Z,6.90
2017-12-13T13:09:13.806Z,7.00
2017-12-13T13:11:42.090Z,6.90
2017-12-13T13:14:10.359Z,6.80
2017-12-13T13:16:38.747Z,6.70
2017-12-13T13:19:07.042Z,6.80
2017-12-13T13:21:35.294Z,6.60
2017-12-13T13:24:03.741Z,6.80
2017-12-13T13:26:32.069Z,6.80
2017-12-13T13:29:00.471Z,6.80
2017-12-13T13:31:28.801Z,6.60
2017-12-13T13:33:57.819Z,6.80
2017-12-13T13:36:26.096Z,6.70
2017-12-13T13:38:54.482Z,6.70
2017-12-13T13:41:22.710Z,6.80
2017-12-13T13:43:51.001Z,6.70
2017-12-13T13:46:19.323Z,6.60
2017-12-13T13:48:47.750Z,6.70
2017-12-13T13:51:16.837Z,6.80
2017-12-13T13:53:45.159Z,6.80
2017-12-13T13:56:13.499Z,6.80
2017-12-13T13:58:41.764Z,6.60
2017-12-13T14:01:10.098Z,6.50
2017-12-13T14:03:38.350Z,6.60
2017-12-13T14:06:06.749Z,6.60
2017-12-13T14:08:35.027Z,6.60
2017-12-13T14:11:03.296Z,6.60
2017-12-13T14:13:31.757Z,6.50
2017-12-13T14:16:00.019Z,6.60
2017-12-13T14:18:28.410Z,6.50
2017-12-13T14:20:56.789Z,6.60
2017-12-13T14:23:25.883Z,6.50
2017-12-13T14:25:54.178Z,6.50
2017-12-13T14:28:22.541Z,6.60
2017-12-13T14:30:50.788Z,6.50
2017-12-13T14:33:19.041Z,6.60
2017-12-13T14:35:48.136Z,6.40
2017-12-13T14:38:16.424Z,6.40
2017-12-13T14:40:48.859Z,6.50
2017-12-13T14:43:20.933Z,6.50
2017-12-13T14:45:49.194Z,6.40
2017-12-13T14:48:19.196Z,6.40
2017-12-13T14:50:49.909Z,6.40
2017-12-13T14:53:22.120Z,6.40
2017-12-13T14:55:50.427Z,6.50
2017-12-13T14:58:20.661Z,6.40
2017-12-13T15:00:51.139Z,6.40
2017-12-13T15:03:25.091Z,6.40
2017-12-13T15:05:53.431Z,6.40
2017-12-13T15:08:22.627Z,6.60
2017-12-13T15:10:51.677Z,6.60
2017-12-13T15:13:22.559Z,6.60
2017-12-13T15:15:50.833Z,6.50
2017-12-13T15:18:19.409Z,6.60
2017-12-13T15:20:47.901Z,6.50
2017-12-13T15:23:16.188Z,6.60
2017-12-13T15:25:45.385Z,6.80
2017-12-13T15:28:14.404Z,7.10
2017-12-13T15:30:42.699Z,7.00
2017-12-13T15:33:11.183Z,7.30
2017-12-13T15:35:39.471Z,7.20
2017-12-13T15:38:08.270Z,7.20
2017-12-13T15:40:36.747Z,7.30
2017-12-13T15:43:05.879Z,7.40
2017-12-13T15:45:36.696Z,7.30
2017-12-13T15:48:05.206Z,7.20
2017-12-13T15:50:34.207Z,7.00
2017-12-13T15:53:02.522Z,7.00
2017-12-13T15:55:30.824Z,6.90
2017-12-13T15:57:59.887Z,6.40
2017-12-13T16:00:41.456Z,6.30
2017-12-13T16:03:10.780Z,6.50
2017-12-13T16:05:39.880Z,6.30
2017-12-13T16:08:09.555Z,6.30
2017-12-13T16:10:39.859Z,6.20
2017-12-13T16:13:08.308Z,5.80
2017-12-13T16:15:39.072Z,5.90
2017-12-13T16:18:07.499Z,5.90
2017-12-13T16:20:36.623Z,5.90
2017-12-13T16:23:04.927Z,5.70
2017-12-13T16:25:33.287Z,5.90
2017-12-13T16:28:03.914Z,6.00
2017-12-13T16:30:33.329Z,5.70
2017-12-13T16:33:03.226Z,5.70
2017-12-13T16:35:31.533Z,5.80
2017-12-13T16:37:59.951Z,5.70
2017-12-13T16:40:28.227Z,5.40
2017-12-13T16:42:57.932Z,5.70
2017-12-13T16:45:26.897Z,5.40
2017-12-13T16:47:56.039Z,5.60
2017-12-13T16:50:26.229Z,5.50
2017-12-13T16:52:54.662Z,5.40
2017-12-13T16:55:23.879Z,5.60
2017-12-13T16:57:52.237Z,5.60
2017-12-13T17:00:21.438Z,5.60
2017-12-13T17:02:51.284Z,5.60
2017-12-13T17:05:19.569Z,5.50
2017-12-13T17:07:48.487Z,5.50
2017-12-13T17:10:16.767Z,5.60
2017-12-13T17:12:46.519Z,5.40
2017-12-13T17:15:15.468Z,5.50
2017-12-13T17:17:44.600Z,5.50
2017-12-13T17:20:13.509Z,5.40
2017-12-13T17:22:43.669Z,5.40
2017-12-13T17:25:11.944Z,5.30
2017-12-13T17:27:40.690Z,5.40
2017-12-13T17:30:09.520Z,5.40
2017-12-13T17:32:37.793Z,5.30
2017-12-13T17:35:07.605Z,5.50
2017-12-13T17:37:36.008Z,5.50
2017-12-13T17:40:04.790Z,5.60
2017-12-13T17:42:35.005Z,5.70
2017-12-13T17:45:03.624Z,5.80
2017-12-13T17:47:32.096Z,5.60
2017-12-13T17:50:00.791Z,5.20
2017-12-13T17:52:29.458Z,5.60
2017-12-13T17:54:59.679Z,4.90
2017-12-13T17:57:28.638Z,5.40
2017-12-13T17:59:57.069Z,4.90
2017-12-13T18:02:43.743Z,5.30
2017-12-13T18:10:51.163Z,5.20
2017-12-13T18:13:19.407Z,5.60
2017-12-13T18:15:47.666Z,5.10
2017-12-13T18:18:16.026Z,5.10
2017-12-13T18:20:44.337Z,5.00
2017-12-13T18:23:12.584Z,5.00
2017-12-13T18:25:41.119Z,5.40
2017-12-13T18:28:09.511Z,4.70
2017-12-13T18:30:38.580Z,5.00
2017-12-13T18:33:07.708Z,5.40
2017-12-13T18:35:36.771Z,4.90
2017-12-13T18:38:05.043Z,4.90
2017-12-13T18:40:34.608Z,5.20
2017-12-13T18:43:04.669Z,4.90
2017-12-13T18:45:33.232Z,4.90
2017-12-13T18:48:02.381Z,5.10
2017-12-13T18:50:31.425Z,5.10
2017-12-13T18:53:00.621Z,5.10
2017-12-13T18:55:30.652Z,5.10
2017-12-13T18:57:58.964Z,5.20
2017-12-13T19:00:31.200Z,4.30
2017-12-13T19:02:59.692Z,4.90
2017-12-13T19:05:27.992Z,5.10
2017-12-13T19:07:57.093Z,5.30
2017-12-13T19:10:25.873Z,5.20
2017-12-13T19:12:55.000Z,4.80
2017-12-13T19:15:23.291Z,4.80
2017-12-13T19:17:51.977Z,4.60
2017-12-13T19:20:20.253Z,5.00
2017-12-13T19:22:48.719Z,4.80
2017-12-13T19:25:17.980Z,5.00
2017-12-13T19:27:46.236Z,5.10
2017-12-13T19:30:14.764Z,6.50
2017-12-13T19:32:43.424Z,4.90
2017-12-13T19:35:11.686Z,4.80
2017-12-13T19:37:40.895Z,5.00
2017-12-13T19:40:09.750Z,4.90
2017-12-13T19:42:38.061Z,4.50
2017-12-13T19:45:08.082Z,5.10
2017-12-13T19:47:36.379Z,5.10
2017-12-13T19:50:06.337Z,5.10
2017-12-13T19:52:35.801Z,4.50
2017-12-13T19:55:04.083Z,5.00
2017-12-13T19:57:32.759Z,5.30
2017-12-13T20:00:01.107Z,4.90
2017-12-13T20:02:29.384Z,4.50
2017-12-13T20:04:57.684Z,4.60
2017-12-13T20:07:26.072Z,4.70
2017-12-13T20:09:54.326Z,4.90
2017-12-13T20:12:22.604Z,4.90
2017-12-13T20:14:53.327Z,5.00
2017-12-13T20:17:22.377Z,4.80
2017-12-13T20:19:52.260Z,4.70
2017-12-13T20:22:20.604Z,4.70
2017-12-13T20:24:48.911Z,4.70
2017-12-13T20:27:32.834Z,4.40
2017-12-13T20:30:06.831Z,4.50
2017-12-13T20:32:35.109Z,4.80
2017-12-13T20:35:05.754Z,5.10
2017-12-13T20:37:36.501Z,4.60
2017-12-13T20:40:04.989Z,4.90
2017-12-13T20:42:34.091Z,5.20
2017-12-13T20:45:08.235Z,4.90
2017-12-13T20:47:37.795Z,4.80
2017-12-13T20:50:06.162Z,4.90
2017-12-13T20:52:34.516Z,5.30
2017-12-13T20:55:02.774Z,4.90
2017-12-13T20:57:31.261Z,4.70
2017-12-13T20:59:59.608Z,4.70
2017-12-13T21:02:27.940Z,5.20
2017-12-13T21:04:56.342Z,5.20
2017-12-13T21:07:24.748Z,4.90
2017-12-13T21:09:53.007Z,4.80
2017-12-13T21:12:21.435Z,4.50
2017-12-13T21:14:49.702Z,4.40
2017-12-13T21:17:17.937Z,4.10
2017-12-13T21:19:46.325Z,4.60
2017-12-13T21:22:14.578Z,4.50
2017-12-13T21:24:43.584Z,4.60
2017-12-13T21:27:12.085Z,4.60
2017-12-13T21:29:40.313Z,4.40
2017-12-13T21:32:08.532Z,4.60
2017-12-13T21:34:36.837Z,4.60
2017-12-13T21:37:05.122Z,4.20
2017-12-13T21:39:33.421Z,4.60
2017-12-13T21:42:02.477Z,4.50
2017-12-13T21:44:30.729Z,4.50
2017-12-13T21:46:58.998Z,4.70
2017-12-13T21:49:27.383Z,4.80
2017-12-13T21:51:55.671Z,4.40
2017-12-13T21:54:23.918Z,4.60
2017-12-13T21:56:52.229Z,4.80
2017-12-13T21:59:20.571Z,4.90
2017-12-13T22:01:48.854Z,4.70
2017-12-13T22:04:17.196Z,4.90
2017-12-13T22:06:45.466Z,4.90
2017-12-13T22:09:13.721Z,5.20
2017-12-13T22:11:42.006Z,4.80
2017-12-13T22:14:10.271Z,5.00
2017-12-13T22:16:38.584Z,4.50
2017-12-13T22:19:07.659Z,4.80
2017-12-13T22:21:35.935Z,4.80
2017-12-13T22:24:04.162Z,5.00
2017-12-13T22:26:32.483Z,5.10
2017-12-13T22:29:00.736Z,5.10
2017-12-13T22:31:28.960Z,5.10
2017-12-13T22:33:58.130Z,5.10
2017-12-13T22:36:26.408Z,5.10
2017-12-13T22:38:54.638Z,5.10
2017-12-13T22:41:22.968Z,5.00
2017-12-13T22:43:51.196Z,5.10
2017-12-13T22:46:19.455Z,5.00
2017-12-13T22:48:47.738Z,5.20
2017-12-13T22:51:16.800Z,5.20
2017-12-13T22:53:45.686Z,5.20
2017-12-13T22:56:14.715Z,5.10
2017-12-13T22:58:43.002Z,5.10
2017-12-13T23:01:11.462Z,5.20
2017-12-13T23:03:39.698Z,5.40
2017-12-13T23:06:07.932Z,5.20
2017-12-13T23:08:36.288Z,5.00
2017-12-13T23:11:04.543Z,5.30
2017-12-13T23:13:33.544Z,5.40
2017-12-13T23:16:01.966Z,5.30
2017-12-13T23:18:30.203Z,4.90
2017-12-13T23:20:58.442Z,4.80
2017-12-13T23:23:26.830Z,4.90
2017-12-13T23:25:55.080Z,5.10
2017-12-13T23:28:23.310Z,5.00
2017-12-13T23:30:51.667Z,5.10
2017-12-13T23:33:19.966Z,5.50
2017-12-13T23:35:48.258Z,5.40
2017-12-13T23:38:16.634Z,5.30
2017-12-13T23:40:45.011Z,5.10
2017-12-13T23:43:13.338Z,5.10
2017-12-13T23:45:41.616Z,5.20
2017-12-13T23:48:10.012Z,5.00
2017-12-13T23:50:39.029Z,5.20
2017-12-13T23:53:07.265Z,5.20
2017-12-13T23:55:35.589Z,5.30
2017-12-13T23:58:03.854Z,5.30
